Weather at Budapest Liszt Ferenc International Airport

Public forecast

Using degrees Celsius for public forecast. Weather courtesy of forecast.io.

Current aviation weather report (METAR) for Budapest Liszt Ferenc International Airport

Retrieved 2021/11/27 15:00 UTC (18 seconds ago):

LHBP 271500Z 10008KT CAVOK 05/03 Q0998 NOSIG

Aviation forecast (TAF) for Budapest Liszt Ferenc International Airport

Retrieved 2021/11/27 12:27 UTC (3 hours ago):

TAF TAF LHBP 271115Z 2712/2812 12008KT CAVOK TEMPO 2712/2717 -RA -SHRA BKN014 BECMG 2717/2719 05006KT 3000 BR TEMPO 2720/2809 09006KT 0300 FG VV001 BECMG 2809/2811 09007KT BKN010